createdAt,value
2019-05-29T00:00:05.814Z,13.51
2019-05-29T00:01:08.978Z,13.54
2019-05-29T00:02:06.150Z,13.52
2019-05-29T00:03:06.278Z,13.51
2019-05-29T00:04:06.166Z,13.39
2019-05-29T00:05:06.004Z,13.44
2019-05-29T00:06:06.182Z,13.44
2019-05-29T00:07:06.110Z,13.42
2019-05-29T00:08:06.277Z,13.32
2019-05-29T00:09:06.026Z,13.36
2019-05-29T00:10:06.141Z,13.36
2019-05-29T00:11:06.050Z,13.30
2019-05-29T00:12:07.487Z,13.30
2019-05-29T00:13:06.117Z,13.33
2019-05-29T00:14:18.738Z,13.25
2019-05-29T00:15:06.280Z,13.32
2019-05-29T00:16:06.154Z,13.28
2019-05-29T00:17:06.298Z,13.32
2019-05-29T00:18:06.204Z,13.28
2019-05-29T00:19:06.845Z,13.29
2019-05-29T00:20:06.165Z,13.29
2019-05-29T00:21:06.253Z,13.26
2019-05-29T00:22:06.165Z,13.23
2019-05-29T00:23:06.307Z,13.20
2019-05-29T00:24:04.888Z,13.17
2019-05-29T00:25:04.877Z,13.14
2019-05-29T00:26:04.866Z,13.15
2019-05-29T00:27:05.361Z,13.14
2019-05-29T00:28:04.856Z,13.10
2019-05-29T00:29:05.639Z,13.10
2019-05-29T00:30:04.820Z,13.05
2019-05-29T00:31:05.791Z,12.97
2019-05-29T00:32:04.804Z,13.04
2019-05-29T00:33:05.924Z,12.97
2019-05-29T00:34:04.775Z,13.03
2019-05-29T00:35:05.905Z,12.93
2019-05-29T00:36:04.756Z,12.96
2019-05-29T00:37:04.737Z,12.90
2019-05-29T00:38:04.749Z,12.89
2019-05-29T00:39:04.717Z,12.90
2019-05-29T00:40:04.701Z,12.96
2019-05-29T00:41:04.713Z,12.92
2019-05-29T00:42:04.697Z,12.89
2019-05-29T00:43:04.689Z,12.83
2019-05-29T00:44:04.687Z,12.82
2019-05-29T00:45:04.652Z,12.85
2019-05-29T00:46:04.659Z,12.79
2019-05-29T00:47:04.630Z,12.82
2019-05-29T00:48:04.699Z,12.74
2019-05-29T00:49:04.598Z,12.77
2019-05-29T00:50:04.598Z,12.77
2019-05-29T00:51:04.585Z,12.72
2019-05-29T00:52:04.564Z,12.72
2019-05-29T00:53:04.564Z,12.67
2019-05-29T00:54:04.566Z,12.70
2019-05-29T00:55:04.541Z,12.71
2019-05-29T00:56:04.525Z,12.70
2019-05-29T00:57:04.512Z,12.68
2019-05-29T00:58:04.551Z,12.62
2019-05-29T00:59:04.506Z,12.65
2019-05-29T01:00:04.503Z,12.65
2019-05-29T01:01:04.509Z,12.70
2019-05-29T01:02:04.463Z,12.68
2019-05-29T01:03:04.449Z,12.74
2019-05-29T01:04:04.450Z,12.65
2019-05-29T01:05:04.445Z,12.67
2019-05-29T01:06:04.418Z,12.68
2019-05-29T01:07:04.406Z,12.70
2019-05-29T01:08:04.392Z,12.62
2019-05-29T01:09:04.400Z,12.62
2019-05-29T01:10:04.380Z,12.65
2019-05-29T01:11:04.443Z,12.60
2019-05-29T01:12:04.374Z,12.68
2019-05-29T01:13:04.339Z,12.59
2019-05-29T01:14:04.343Z,12.65
2019-05-29T01:15:04.309Z,12.60
2019-05-29T01:16:04.297Z,12.68
2019-05-29T01:17:04.288Z,12.53
2019-05-29T01:18:04.281Z,12.62
2019-05-29T01:19:04.274Z,12.65
2019-05-29T01:20:04.277Z,12.74
2019-05-29T01:21:04.246Z,12.70
2019-05-29T01:22:04.283Z,12.62
2019-05-29T01:23:04.220Z,12.71
2019-05-29T01:24:04.220Z,12.59
2019-05-29T01:25:04.354Z,12.67
2019-05-29T01:26:04.200Z,12.65
2019-05-29T01:27:04.200Z,12.72
2019-05-29T01:28:04.172Z,12.62
2019-05-29T01:29:04.151Z,12.70
2019-05-29T01:30:04.175Z,12.67
2019-05-29T01:31:04.130Z,12.72
2019-05-29T01:32:04.134Z,12.71
2019-05-29T01:33:04.108Z,12.72
2019-05-29T01:34:04.095Z,12.72
2019-05-29T01:35:04.112Z,12.64
2019-05-29T01:36:04.072Z,12.77
2019-05-29T01:37:04.090Z,12.71
2019-05-29T01:38:04.057Z,12.68
2019-05-29T01:39:04.043Z,12.70
2019-05-29T01:40:18.663Z,12.68
2019-05-29T01:41:05.023Z,12.68
2019-05-29T01:42:04.008Z,12.70
2019-05-29T01:43:04.032Z,12.70
2019-05-29T01:44:03.996Z,12.79
2019-05-29T01:45:08.071Z,12.70
2019-05-29T01:46:03.967Z,12.77
2019-05-29T01:47:04.003Z,12.71
2019-05-29T01:48:03.945Z,12.74
2019-05-29T01:49:03.936Z,12.77
2019-05-29T01:50:03.948Z,12.72
2019-05-29T01:51:03.908Z,12.74
2019-05-29T01:52:03.897Z,12.71
2019-05-29T01:53:03.911Z,12.71
2019-05-29T01:54:03.883Z,12.74
2019-05-29T01:55:03.884Z,12.70
2019-05-29T01:56:03.853Z,12.74
2019-05-29T01:57:03.859Z,12.74
2019-05-29T01:58:03.829Z,12.75
2019-05-29T01:59:03.846Z,12.78
2019-05-29T02:00:03.849Z,12.74
2019-05-29T02:01:03.822Z,12.77
2019-05-29T02:02:03.790Z,12.74
2019-05-29T02:03:03.776Z,12.74
2019-05-29T02:04:03.767Z,12.86
2019-05-29T02:05:03.767Z,12.77
2019-05-29T02:06:03.777Z,12.82
2019-05-29T02:07:03.726Z,12.77
2019-05-29T02:08:03.734Z,12.82
2019-05-29T02:09:03.718Z,12.83
2019-05-29T02:10:03.698Z,12.78
2019-05-29T02:11:03.700Z,12.77
2019-05-29T02:12:03.711Z,12.78
2019-05-29T02:13:03.669Z,12.83
2019-05-29T02:14:03.650Z,12.78
2019-05-29T02:15:03.673Z,12.72
2019-05-29T02:16:03.680Z,12.72
2019-05-29T02:17:03.622Z,12.78
2019-05-29T02:18:03.607Z,12.78
2019-05-29T02:19:03.611Z,12.72
2019-05-29T02:20:03.586Z,12.77
2019-05-29T02:21:03.592Z,12.83
2019-05-29T02:22:03.565Z,12.78
2019-05-29T02:23:03.555Z,12.75
2019-05-29T02:24:03.540Z,12.87
2019-05-29T02:25:03.547Z,12.77
2019-05-29T02:26:03.551Z,12.75
2019-05-29T02:27:03.513Z,12.79
2019-05-29T02:28:03.505Z,12.77
2019-05-29T02:29:03.487Z,12.75
2019-05-29T02:30:03.496Z,12.74
2019-05-29T02:31:03.473Z,12.74
2019-05-29T02:32:03.476Z,12.77
2019-05-29T02:33:03.448Z,12.74
2019-05-29T02:34:07.231Z,12.72
2019-05-29T02:35:03.416Z,12.78
2019-05-29T02:36:03.433Z,12.74
2019-05-29T02:37:03.404Z,12.70
2019-05-29T02:38:03.380Z,12.70
2019-05-29T02:39:03.377Z,12.71
2019-05-29T02:40:03.378Z,12.75
2019-05-29T02:41:03.379Z,12.75
2019-05-29T02:42:03.336Z,12.75
2019-05-29T02:43:03.342Z,12.79
2019-05-29T02:44:03.313Z,12.78
2019-05-29T02:45:03.309Z,12.74
2019-05-29T02:46:03.295Z,12.72
2019-05-29T02:47:03.298Z,12.74
2019-05-29T02:48:03.279Z,12.75
2019-05-29T02:49:03.261Z,12.70
2019-05-29T02:50:03.259Z,12.74
2019-05-29T02:51:03.248Z,12.71
2019-05-29T02:52:03.256Z,12.68
2019-05-29T02:53:03.216Z,12.71
2019-05-29T02:54:03.213Z,12.74
2019-05-29T02:55:03.197Z,12.67
2019-05-29T02:56:03.186Z,12.72
2019-05-29T02:57:03.199Z,12.68
2019-05-29T02:58:03.170Z,12.70
2019-05-29T02:59:03.157Z,12.64
2019-05-29T03:00:03.141Z,12.62
2019-05-29T03:01:03.130Z,12.62
2019-05-29T03:02:03.151Z,12.60
2019-05-29T03:03:03.125Z,12.60
2019-05-29T03:04:03.110Z,12.53
2019-05-29T03:05:03.102Z,12.60
2019-05-29T03:06:03.119Z,12.57
2019-05-29T03:07:03.104Z,12.65
2019-05-29T03:08:03.078Z,12.50
2019-05-29T03:09:03.041Z,12.59
2019-05-29T03:10:03.038Z,12.57
2019-05-29T03:11:03.018Z,12.57
2019-05-29T03:12:03.032Z,12.50
2019-05-29T03:13:03.026Z,12.49
2019-05-29T03:14:02.992Z,12.49
2019-05-29T03:15:02.975Z,12.50
2019-05-29T03:16:11.801Z,12.49
2019-05-29T03:17:03.949Z,12.47
2019-05-29T03:18:02.959Z,12.52
2019-05-29T03:19:02.938Z,12.45
2019-05-29T03:20:02.936Z,12.46
2019-05-29T03:21:02.926Z,12.46
2019-05-29T03:22:02.903Z,12.47
2019-05-29T03:23:02.927Z,12.45
2019-05-29T03:24:02.894Z,12.42
2019-05-29T03:25:02.862Z,12.35
2019-05-29T03:26:02.852Z,12.45
2019-05-29T03:27:02.844Z,12.50
2019-05-29T03:28:02.848Z,12.49
2019-05-29T03:29:02.840Z,12.46
2019-05-29T03:30:02.821Z,12.53
2019-05-29T03:31:02.800Z,12.45
2019-05-29T03:32:02.786Z,12.49
2019-05-29T03:33:02.808Z,12.45
2019-05-29T03:34:02.796Z,12.45
2019-05-29T03:35:02.756Z,12.46
2019-05-29T03:36:02.780Z,12.47
2019-05-29T03:37:02.739Z,12.34
2019-05-29T03:38:02.734Z,12.46
2019-05-29T03:39:02.727Z,12.39
2019-05-29T03:40:02.706Z,12.38
2019-05-29T03:41:02.691Z,12.42
2019-05-29T03:42:02.691Z,12.42
2019-05-29T03:43:02.697Z,12.39
2019-05-29T03:44:02.660Z,12.31
2019-05-29T03:45:02.644Z,12.27
2019-05-29T03:46:02.720Z,12.27
2019-05-29T03:47:02.629Z,12.17
2019-05-29T03:48:02.642Z,12.23
2019-05-29T03:49:02.649Z,12.23
2019-05-29T03:50:02.615Z,12.27
2019-05-29T03:51:02.599Z,12.27
2019-05-29T03:52:02.593Z,12.24
2019-05-29T03:53:02.614Z,12.19
2019-05-29T03:54:02.572Z,12.10
2019-05-29T03:55:02.540Z,12.32
2019-05-29T03:56:02.541Z,12.17
2019-05-29T03:57:02.515Z,12.17
2019-05-29T03:58:02.506Z,12.20
2019-05-29T03:59:02.522Z,12.17
2019-05-29T04:00:02.494Z,12.21
2019-05-29T04:01:02.481Z,12.27
2019-05-29T04:02:02.469Z,12.21
2019-05-29T04:03:02.450Z,12.10
2019-05-29T04:04:02.455Z,12.16
2019-05-29T04:05:02.427Z,12.16
2019-05-29T04:06:02.423Z,12.16
2019-05-29T04:07:02.413Z,12.12
2019-05-29T04:08:02.403Z,12.14
2019-05-29T04:09:02.405Z,12.12
2019-05-29T04:10:02.379Z,12.14
2019-05-29T04:11:02.374Z,12.13
2019-05-29T04:12:02.357Z,12.13
2019-05-29T04:13:02.349Z,12.09
2019-05-29T04:14:02.348Z,12.14
2019-05-29T04:15:02.318Z,12.23
2019-05-29T04:16:02.322Z,12.13
2019-05-29T04:17:02.299Z,12.13
2019-05-29T04:18:02.288Z,12.16
2019-05-29T04:19:02.294Z,12.14
2019-05-29T04:20:02.268Z,12.17
2019-05-29T04:21:02.256Z,12.13
2019-05-29T04:22:02.246Z,12.16
2019-05-29T04:23:02.241Z,12.12
2019-05-29T04:24:02.264Z,12.13
2019-05-29T04:25:02.238Z,12.13
2019-05-29T04:26:02.212Z,12.05
2019-05-29T04:27:02.188Z,12.05
2019-05-29T04:28:02.181Z,12.07
2019-05-29T04:29:02.183Z,12.07
2019-05-29T04:30:02.188Z,12.02
2019-05-29T04:31:02.152Z,12.04
2019-05-29T04:32:02.142Z,12.04
2019-05-29T04:33:02.140Z,11.99
2019-05-29T04:34:02.112Z,11.99
2019-05-29T04:35:02.155Z,11.99
2019-05-29T04:36:02.096Z,12.02
2019-05-29T04:37:02.111Z,12.05
2019-05-29T04:38:02.072Z,12.01
2019-05-29T04:39:02.058Z,12.02
2019-05-29T04:40:02.100Z,12.05
2019-05-29T04:41:02.060Z,12.02
2019-05-29T04:42:02.031Z,12.05
2019-05-29T04:43:02.025Z,12.13
2019-05-29T04:44:02.009Z,12.05
2019-05-29T04:45:02.022Z,12.12
2019-05-29T04:46:01.987Z,12.07
2019-05-29T04:47:11.248Z,12.14
2019-05-29T04:48:03.014Z,12.04
2019-05-29T04:49:01.985Z,12.04
2019-05-29T04:50:01.956Z,12.09
2019-05-29T04:51:01.974Z,12.13
2019-05-29T04:52:01.926Z,12.19
2019-05-29T04:53:01.908Z,12.19
2019-05-29T04:54:01.906Z,12.20
2019-05-29T04:55:01.905Z,12.19
2019-05-29T04:56:01.883Z,12.14
2019-05-29T04:57:01.873Z,12.21
2019-05-29T04:58:01.851Z,12.16
2019-05-29T04:59:01.872Z,12.16
2019-05-29T05:00:01.863Z,12.16
2019-05-29T05:01:01.821Z,12.01
2019-05-29T05:02:01.813Z,12.05
2019-05-29T05:03:01.805Z,12.13
2019-05-29T05:04:01.785Z,12.13
2019-05-29T05:05:01.817Z,12.21
2019-05-29T05:06:01.794Z,12.05
2019-05-29T05:07:01.759Z,12.17
2019-05-29T05:08:01.755Z,12.17
2019-05-29T05:09:01.731Z,12.16
2019-05-29T05:10:01.719Z,12.14
2019-05-29T05:11:01.728Z,12.20
2019-05-29T05:12:01.709Z,12.29
2019-05-29T05:13:01.690Z,12.21
2019-05-29T05:14:01.977Z,12.20
2019-05-29T05:15:01.670Z,12.23
2019-05-29T05:16:01.679Z,12.24
2019-05-29T05:17:01.670Z,12.23
2019-05-29T05:18:01.642Z,12.23
2019-05-29T05:19:01.635Z,12.28
2019-05-29T05:20:01.623Z,12.32
2019-05-29T05:21:01.638Z,12.35
2019-05-29T05:22:01.589Z,12.37
2019-05-29T05:23:01.587Z,12.46
2019-05-29T05:24:01.580Z,12.50
2019-05-29T05:25:01.558Z,12.46
2019-05-29T05:26:01.559Z,12.46
2019-05-29T05:27:01.535Z,12.47
2019-05-29T05:28:01.527Z,12.47
2019-05-29T05:29:01.510Z,12.59
2019-05-29T05:30:01.506Z,12.62
2019-05-29T05:31:01.530Z,12.52
2019-05-29T05:32:01.477Z,12.64
2019-05-29T05:33:01.475Z,12.64
2019-05-29T05:34:01.467Z,12.70
2019-05-29T05:35:01.462Z,12.67
2019-05-29T05:36:01.449Z,12.67
2019-05-29T05:37:01.435Z,12.65
2019-05-29T05:38:01.416Z,12.70
2019-05-29T05:39:01.413Z,12.74
2019-05-29T05:40:01.394Z,12.71
2019-05-29T05:41:01.404Z,12.77
2019-05-29T05:42:01.427Z,12.89
2019-05-29T05:43:01.358Z,12.79
2019-05-29T05:44:01.342Z,12.87
2019-05-29T05:45:01.360Z,12.90
2019-05-29T05:46:01.318Z,12.83
2019-05-29T05:47:01.329Z,12.75
2019-05-29T05:48:01.297Z,12.90
2019-05-29T05:49:01.285Z,12.93
2019-05-29T05:50:01.287Z,12.93
2019-05-29T05:51:01.268Z,13.03
2019-05-29T05:52:01.268Z,13.07
2019-05-29T05:53:01.237Z,13.00
2019-05-29T05:54:01.242Z,13.10
2019-05-29T05:55:01.224Z,13.14
2019-05-29T05:56:01.206Z,13.12
2019-05-29T05:57:01.215Z,13.14
2019-05-29T05:58:01.201Z,13.11
2019-05-29T05:59:01.173Z,13.25
2019-05-29T06:00:01.163Z,13.26
2019-05-29T06:01:01.155Z,13.29
2019-05-29T06:02:01.203Z,13.29
2019-05-29T06:03:01.147Z,13.30
2019-05-29T06:04:01.125Z,13.26
2019-05-29T06:05:01.108Z,13.32
2019-05-29T06:06:01.103Z,13.33
2019-05-29T06:07:01.084Z,13.39
2019-05-29T06:08:01.099Z,13.42
2019-05-29T06:09:01.069Z,13.42
2019-05-29T06:10:01.049Z,13.52
2019-05-29T06:11:01.039Z,13.55
2019-05-29T06:12:01.025Z,13.55
2019-05-29T06:13:01.033Z,13.54
2019-05-29T06:14:01.019Z,13.57
2019-05-29T06:15:00.992Z,13.57
2019-05-29T06:16:00.987Z,13.55
2019-05-29T06:17:00.980Z,13.66
2019-05-29T06:18:19.936Z,13.63
2019-05-29T06:19:01.962Z,13.69
2019-05-29T06:20:00.936Z,13.75
2019-05-29T06:21:00.949Z,13.78
2019-05-29T06:22:00.913Z,13.67
2019-05-29T06:23:00.921Z,13.70
2019-05-29T06:24:00.894Z,13.77
2019-05-29T06:25:00.882Z,13.73
2019-05-29T06:26:00.885Z,13.77
2019-05-29T06:27:00.863Z,13.77
2019-05-29T06:28:00.882Z,13.79
2019-05-29T06:29:00.836Z,13.85
2019-05-29T06:30:00.844Z,13.78
2019-05-29T06:31:00.820Z,13.78
2019-05-29T06:32:00.803Z,13.79
2019-05-29T06:33:00.858Z,13.70
2019-05-29T06:34:00.786Z,13.70
2019-05-29T06:35:00.774Z,13.69
2019-05-29T06:36:00.760Z,13.60
2019-05-29T06:37:00.755Z,13.69
2019-05-29T06:38:00.790Z,13.63
2019-05-29T06:39:00.732Z,13.60
2019-05-29T06:40:00.726Z,13.67
2019-05-29T06:41:00.707Z,13.64
2019-05-29T06:42:00.693Z,13.57
2019-05-29T06:43:00.700Z,13.67
2019-05-29T06:44:00.687Z,13.70
2019-05-29T06:45:00.769Z,13.78
2019-05-29T06:46:00.646Z,13.77
2019-05-29T06:47:00.647Z,13.71
2019-05-29T06:48:00.631Z,13.73
2019-05-29T06:49:01.179Z,13.75
2019-05-29T06:50:00.600Z,13.78
2019-05-29T06:51:00.592Z,13.79
2019-05-29T06:52:00.583Z,13.79
2019-05-29T06:53:00.578Z,13.79
2019-05-29T06:54:00.576Z,13.82
2019-05-29T06:55:00.559Z,13.79
2019-05-29T06:56:01.664Z,13.77
2019-05-29T06:57:00.529Z,13.78
2019-05-29T06:58:00.517Z,13.75
2019-05-29T06:59:00.580Z,13.82
2019-05-29T07:00:00.509Z,13.85
2019-05-29T07:01:00.506Z,13.95
2019-05-29T07:02:00.470Z,13.92
2019-05-29T07:03:00.484Z,14.02
2019-05-29T07:04:11.082Z,14.04
2019-05-29T07:05:01.436Z,14.14
2019-05-29T07:06:00.435Z,14.21
2019-05-29T07:07:00.432Z,14.25
2019-05-29T07:08:17.077Z,14.29
2019-05-29T07:09:01.426Z,14.29
2019-05-29T07:10:00.396Z,14.29
2019-05-29T07:11:00.371Z,14.37
2019-05-29T07:12:00.367Z,14.43
2019-05-29T07:13:00.349Z,14.40
2019-05-29T07:14:00.381Z,14.52
2019-05-29T07:15:00.329Z,14.43
2019-05-29T07:16:00.316Z,14.52
2019-05-29T07:17:00.383Z,14.46
2019-05-29T07:18:00.295Z,14.55
2019-05-29T07:20:04.063Z,14.75
2019-05-29T07:21:00.256Z,14.77
2019-05-29T07:22:00.266Z,14.65
2019-05-29T07:23:00.235Z,14.77
2019-05-29T07:24:00.244Z,14.78
2019-05-29T07:25:00.234Z,14.78
2019-05-29T07:26:00.202Z,14.84
2019-05-29T07:27:00.199Z,14.91
2019-05-29T07:28:00.196Z,14.80
2019-05-29T07:29:08.126Z,14.72
2019-05-29T07:30:01.175Z,14.88
2019-05-29T07:31:03.394Z,14.96
2019-05-29T07:32:00.140Z,14.95
2019-05-29T07:33:00.141Z,15.02
2019-05-29T07:34:00.125Z,15.14
2019-05-29T07:35:03.685Z,15.25
2019-05-29T07:36:00.101Z,15.38
2019-05-29T07:37:00.086Z,15.46
2019-05-29T07:38:00.079Z,15.47
2019-05-29T07:39:03.676Z,15.44
2019-05-29T07:40:00.069Z,15.57
2019-05-29T07:41:00.053Z,15.67
2019-05-29T07:42:00.029Z,15.72
2019-05-29T07:43:00.015Z,15.80
2019-05-29T07:44:00.004Z,15.83
2019-05-29T07:45:00.013Z,15.96
2019-05-29T07:46:00.047Z,16.01
2019-05-29T07:46:59.970Z,16.01
2019-05-29T07:47:59.959Z,16.12
2019-05-29T07:48:59.969Z,16.23
2019-05-29T07:49:59.967Z,16.30
2019-05-29T07:52:00.919Z,16.30
2019-05-29T07:52:14.702Z,16.28
2019-05-29T07:52:59.923Z,16.48
2019-05-29T07:53:59.986Z,16.52
2019-05-29T07:55:00.943Z,16.60
2019-05-29T07:55:59.888Z,16.63
2019-05-29T07:56:59.861Z,16.75
2019-05-29T07:57:59.850Z,16.81
2019-05-29T07:59:03.034Z,16.86
2019-05-29T07:59:59.829Z,16.86
2019-05-29T08:01:12.340Z,16.94
2019-05-29T08:02:00.817Z,16.91
2019-05-29T08:02:59.797Z,17.04
2019-05-29T08:03:59.800Z,17.07
2019-05-29T08:04:59.782Z,17.14
2019-05-29T08:05:59.785Z,17.22
2019-05-29T08:06:59.750Z,17.33
2019-05-29T08:07:59.768Z,17.36
2019-05-29T08:08:59.745Z,17.43
2019-05-29T08:09:59.727Z,17.49
2019-05-29T08:10:59.723Z,17.48
2019-05-29T08:11:59.732Z,17.52
2019-05-29T08:12:59.717Z,17.46
2019-05-29T08:13:59.676Z,17.41
2019-05-29T08:14:59.694Z,17.40
2019-05-29T08:16:02.907Z,17.33
2019-05-29T08:16:59.659Z,17.33
2019-05-29T08:17:59.638Z,17.26
2019-05-29T08:18:59.627Z,17.22
2019-05-29T08:20:06.792Z,17.11
2019-05-29T08:21:00.629Z,17.04
2019-05-29T08:21:59.591Z,16.97
2019-05-29T08:22:59.614Z,16.97
2019-05-29T08:23:59.562Z,17.00
2019-05-29T08:24:59.552Z,17.06
2019-05-29T08:25:59.542Z,16.91
2019-05-29T08:26:59.571Z,16.85
2019-05-29T08:27:59.579Z,16.85
2019-05-29T08:28:59.511Z,16.86
2019-05-29T08:29:59.496Z,16.73
2019-05-29T08:30:59.505Z,16.83
2019-05-29T08:31:59.485Z,16.78
2019-05-29T08:32:59.470Z,16.76
2019-05-29T08:33:59.451Z,16.81
2019-05-29T08:34:59.441Z,16.73
2019-05-29T08:36:00.433Z,16.75
2019-05-29T08:37:06.585Z,16.75
2019-05-29T08:38:00.406Z,16.73
2019-05-29T08:38:59.416Z,16.78
2019-05-29T08:39:59.390Z,16.76
2019-05-29T08:40:59.379Z,16.68
2019-05-29T08:42:21.059Z,16.67
2019-05-29T08:43:00.359Z,16.83
2019-05-29T08:43:59.357Z,16.78
2019-05-29T08:44:59.376Z,16.68
2019-05-29T08:45:59.319Z,16.71
2019-05-29T08:47:09.465Z,16.67
2019-05-29T08:48:00.295Z,16.73
2019-05-29T08:48:59.292Z,16.70
2019-05-29T08:50:16.858Z,16.70
2019-05-29T08:51:00.274Z,16.70
2019-05-29T08:52:11.101Z,16.81
2019-05-29T08:53:02.535Z,16.71
2019-05-29T08:53:59.264Z,16.81
2019-05-29T08:54:59.225Z,16.75
2019-05-29T08:55:59.216Z,16.81
2019-05-29T08:56:59.231Z,16.78
2019-05-29T08:57:59.201Z,16.86
2019-05-29T08:58:59.180Z,16.88
2019-05-29T08:59:59.192Z,16.81
2019-05-29T09:00:59.165Z,16.86
2019-05-29T09:01:59.163Z,16.85
2019-05-29T09:02:59.155Z,16.86
2019-05-29T09:03:59.128Z,16.96
2019-05-29T09:04:59.128Z,17.01
2019-05-29T09:06:08.480Z,17.07
2019-05-29T09:07:00.120Z,17.04
2019-05-29T09:07:59.079Z,17.03
2019-05-29T09:08:59.066Z,17.11
2019-05-29T09:09:59.089Z,17.08
2019-05-29T09:10:59.046Z,17.28
2019-05-29T09:11:59.047Z,17.41
2019-05-29T09:13:04.826Z,17.36
2019-05-29T09:14:00.012Z,17.41
2019-05-29T09:14:59.024Z,17.46
2019-05-29T09:15:58.987Z,17.64
2019-05-29T09:16:59.009Z,17.75
2019-05-29T09:17:58.986Z,17.77
2019-05-29T09:18:58.961Z,17.84
2019-05-29T09:19:58.952Z,17.84
2019-05-29T09:21:03.314Z,17.81
2019-05-29T09:21:59.929Z,17.92
2019-05-29T09:22:58.933Z,18.00
2019-05-29T09:23:59.240Z,18.03
2019-05-29T09:24:58.895Z,18.07
2019-05-29T09:26:13.658Z,18.05
2019-05-29T09:26:59.876Z,18.10
2019-05-29T09:27:58.888Z,18.00
2019-05-29T09:28:58.967Z,18.08
2019-05-29T09:29:58.833Z,18.21
2019-05-29T09:30:58.960Z,18.18
2019-05-29T09:31:58.823Z,18.18
2019-05-29T09:32:58.825Z,18.21
2019-05-29T09:33:58.799Z,18.23
2019-05-29T09:34:58.808Z,18.10
2019-05-29T09:35:58.767Z,18.07
2019-05-29T09:36:59.027Z,17.99
2019-05-29T09:37:58.763Z,18.05
2019-05-29T09:38:58.739Z,18.02
2019-05-29T09:39:58.730Z,18.11
2019-05-29T09:40:58.731Z,18.10
2019-05-29T09:41:58.705Z,18.05
2019-05-29T09:42:58.717Z,18.08
2019-05-29T09:44:00.317Z,18.21
2019-05-29T09:44:58.688Z,18.23
2019-05-29T09:46:02.066Z,18.33
2019-05-29T09:46:58.642Z,18.29
2019-05-29T09:47:58.670Z,18.15
2019-05-29T09:49:01.432Z,18.17
2019-05-29T09:49:58.612Z,18.29
2019-05-29T09:50:58.601Z,18.27
2019-05-29T09:51:58.587Z,18.35
2019-05-29T09:53:00.395Z,18.42
2019-05-29T09:54:01.032Z,18.52
2019-05-29T09:54:58.572Z,18.50
2019-05-29T09:55:59.064Z,18.44
2019-05-29T09:56:59.638Z,18.52
2019-05-29T09:57:58.708Z,18.60
2019-05-29T09:59:00.394Z,18.54
2019-05-29T10:00:00.336Z,18.69
2019-05-29T10:01:19.878Z,18.70
2019-05-29T10:02:03.286Z,18.78
2019-05-29T10:02:59.587Z,18.75
2019-05-29T10:04:00.062Z,18.78
2019-05-29T10:05:00.431Z,18.82
2019-05-29T10:05:59.470Z,18.87
2019-05-29T10:06:59.568Z,18.98
2019-05-29T10:07:59.647Z,19.06
2019-05-29T10:08:59.918Z,19.06
2019-05-29T10:09:59.363Z,19.06
2019-05-29T10:11:06.802Z,19.13
2019-05-29T10:12:03.282Z,19.25
2019-05-29T10:12:59.968Z,19.28
2019-05-29T10:13:58.883Z,19.31
2019-05-29T10:14:59.009Z,19.31
2019-05-29T10:15:59.124Z,19.28
2019-05-29T10:17:01.977Z,19.19
2019-05-29T10:18:00.539Z,19.11
2019-05-29T10:18:59.820Z,19.13
2019-05-29T10:19:58.961Z,18.98
2019-05-29T10:20:59.730Z,18.88
2019-05-29T10:22:00.105Z,18.78
2019-05-29T10:22:58.976Z,18.69
2019-05-29T10:23:59.542Z,18.65
2019-05-29T10:24:59.846Z,18.67
2019-05-29T10:25:58.870Z,18.62
2019-05-29T10:26:59.034Z,18.41
2019-05-29T10:27:58.198Z,18.47
2019-05-29T10:29:07.585Z,18.36
2019-05-29T10:29:59.182Z,18.35
2019-05-29T10:31:03.173Z,18.25
2019-05-29T10:31:59.146Z,18.15
2019-05-29T10:32:58.157Z,18.21
2019-05-29T10:33:58.194Z,18.26
2019-05-29T10:34:58.137Z,18.29
2019-05-29T10:35:58.145Z,18.37
2019-05-29T10:36:58.118Z,18.45
2019-05-29T10:37:58.094Z,18.48
2019-05-29T10:38:58.073Z,18.52
2019-05-29T10:39:58.101Z,18.69
2019-05-29T10:41:06.434Z,18.76
2019-05-29T10:41:59.046Z,18.75
2019-05-29T10:42:58.028Z,18.75
2019-05-29T10:43:58.023Z,18.91
2019-05-29T10:44:58.026Z,18.99
2019-05-29T10:45:58.003Z,19.16
2019-05-29T10:46:57.986Z,19.26
2019-05-29T10:47:57.995Z,19.36
2019-05-29T10:48:57.962Z,19.43
2019-05-29T10:49:57.966Z,19.41
2019-05-29T10:50:57.951Z,19.50
2019-05-29T10:52:13.853Z,19.55
2019-05-29T10:52:58.920Z,19.58
2019-05-29T10:53:59.099Z,19.62
2019-05-29T10:54:57.914Z,19.71
2019-05-29T10:55:57.892Z,19.76
2019-05-29T10:56:57.903Z,19.65
2019-05-29T10:57:57.869Z,19.73
2019-05-29T10:59:00.070Z,19.81
2019-05-29T10:59:57.861Z,19.83
2019-05-29T11:00:57.833Z,19.92
2019-05-29T11:01:57.827Z,19.94
2019-05-29T11:02:57.882Z,19.95
2019-05-29T11:03:57.799Z,19.99
2019-05-29T11:04:59.501Z,20.02
2019-05-29T11:05:57.793Z,20.05
2019-05-29T11:06:57.769Z,20.06
2019-05-29T11:07:57.767Z,20.13
2019-05-29T11:08:57.804Z,20.13
2019-05-29T11:09:57.761Z,20.16
2019-05-29T11:10:57.731Z,20.20
2019-05-29T11:11:57.884Z,20.26
2019-05-29T11:12:57.714Z,20.31
2019-05-29T11:13:57.698Z,20.28
2019-05-29T11:14:57.718Z,20.38
2019-05-29T11:15:57.687Z,20.29
2019-05-29T11:16:57.739Z,20.50
2019-05-29T11:17:57.650Z,20.38
2019-05-29T11:18:57.758Z,20.58
2019-05-29T11:19:58.211Z,20.52
2019-05-29T11:20:57.712Z,20.57
2019-05-29T11:22:05.699Z,20.61
2019-05-29T11:22:58.588Z,20.57
2019-05-29T11:23:58.162Z,20.62
2019-05-29T11:24:58.411Z,20.59
2019-05-29T11:25:58.616Z,20.67
2019-05-29T11:26:58.932Z,20.67
2019-05-29T11:27:58.675Z,20.67
2019-05-29T11:28:58.801Z,20.64
2019-05-29T11:29:58.950Z,20.58
2019-05-29T11:30:59.305Z,20.57
2019-05-29T11:31:58.873Z,20.55
2019-05-29T11:33:00.477Z,20.51
2019-05-29T11:33:57.475Z,20.42
2019-05-29T11:34:57.593Z,20.47
2019-05-29T11:36:09.414Z,20.50
2019-05-29T11:36:58.447Z,20.42
2019-05-29T11:37:58.712Z,20.36
2019-05-29T11:39:03.223Z,20.38
2019-05-29T11:39:58.991Z,20.32
2019-05-29T11:41:22.590Z,20.21
2019-05-29T11:41:58.906Z,20.11
2019-05-29T11:42:57.393Z,20.03
2019-05-29T11:43:57.362Z,19.96
2019-05-29T11:44:57.355Z,19.81
2019-05-29T11:45:57.455Z,19.80
2019-05-29T11:46:58.206Z,19.69
2019-05-29T11:47:59.151Z,19.71
2019-05-29T11:48:57.435Z,19.62
2019-05-29T11:50:07.428Z,19.50
2019-05-29T11:50:58.346Z,19.47
2019-05-29T11:52:18.610Z,19.40
2019-05-29T11:52:58.606Z,19.36
2019-05-29T11:53:57.516Z,19.29
2019-05-29T11:55:00.004Z,19.32
2019-05-29T11:55:58.267Z,19.33
2019-05-29T11:56:57.444Z,19.43
2019-05-29T11:57:57.918Z,19.47
2019-05-29T11:58:57.300Z,19.61
2019-05-29T12:00:01.254Z,19.74
2019-05-29T12:00:59.224Z,19.76
2019-05-29T12:01:58.589Z,19.77
2019-05-29T12:02:57.769Z,19.78
2019-05-29T12:04:18.082Z,19.80
2019-05-29T12:05:02.716Z,19.76
2019-05-29T12:05:59.316Z,19.76
2019-05-29T12:06:57.634Z,19.66
2019-05-29T12:07:57.543Z,19.71
2019-05-29T12:08:57.967Z,19.73
2019-05-29T12:09:57.548Z,19.78
2019-05-29T12:10:57.395Z,19.80
2019-05-29T12:11:57.949Z,19.73
2019-05-29T12:12:57.548Z,19.81
2019-05-29T12:13:58.053Z,19.71
2019-05-29T12:15:06.158Z,19.74
2019-05-29T12:15:58.014Z,19.68
2019-05-29T12:16:58.221Z,19.65
2019-05-29T12:18:19.120Z,19.56
2019-05-29T12:18:57.976Z,19.62
2019-05-29T12:19:59.868Z,19.61
2019-05-29T12:20:58.532Z,19.66
2019-05-29T12:21:58.238Z,19.62
2019-05-29T12:23:18.927Z,19.66
2019-05-29T12:23:58.253Z,19.69
2019-05-29T12:24:56.913Z,19.73
2019-05-29T12:26:18.844Z,19.68
2019-05-29T12:26:58.539Z,19.76
2019-05-29T12:27:57.371Z,19.83
2019-05-29T12:29:04.891Z,19.94
2019-05-29T12:29:58.790Z,19.88
2019-05-29T12:30:57.031Z,19.96
2019-05-29T12:31:57.132Z,20.03
2019-05-29T12:32:56.906Z,19.94
2019-05-29T12:34:00.070Z,19.92
2019-05-29T12:34:59.375Z,19.96
2019-05-29T12:35:56.978Z,19.92
2019-05-29T12:36:57.364Z,19.91
2019-05-29T12:37:57.353Z,19.88
2019-05-29T12:38:57.777Z,19.80
2019-05-29T12:39:57.489Z,19.83
2019-05-29T12:40:57.652Z,19.78
2019-05-29T12:41:57.578Z,19.76
2019-05-29T12:42:57.533Z,19.76
2019-05-29T12:43:57.468Z,19.80
2019-05-29T12:44:57.579Z,19.80
2019-05-29T12:45:57.752Z,19.96
2019-05-29T12:46:57.707Z,19.92
2019-05-29T12:47:58.201Z,19.95
2019-05-29T12:48:57.581Z,19.98
2019-05-29T12:49:57.645Z,20.02
2019-05-29T12:50:58.294Z,20.05
2019-05-29T12:51:57.656Z,20.13
2019-05-29T12:52:57.716Z,20.14